Weather at Phoenix Sky Harbor International Airport

Public forecast

Using degrees Fahrenheit for public forecast. Weather courtesy of forecast.io.

Current aviation weather report (METAR) for Phoenix Sky Harbor International Airport

Retrieved 2020/10/27 06:51 UTC (1 hour ago):

KPHX 270651Z 35009KT 10SM FEW060 FEW075 FEW110 12/M11 A2988 RMK AO2 SLP110 T01221111 402280122

Aviation forecast (TAF) for Phoenix Sky Harbor International Airport

Retrieved 2020/10/27 06:22 UTC (2 hours ago):

TAF KPHX 270520Z 2706/2812 01009KT P6SM FEW080 BKN100 FM270800 27005KT P6SM FEW080 SCT100 FM271500 06010KT P6SM FEW100 FM272200 20007KT P6SM FEW100 FM280300 09005KT P6SM SKC